createdAt,value
2023-01-27T00:01:59.073Z,6.90
2023-01-27T00:06:27.270Z,8.50
2023-01-27T00:10:36.036Z,6.80
2023-01-27T00:14:44.688Z,3.80
2023-01-27T00:18:53.713Z,3.90
2023-01-27T00:23:40.946Z,5.37
2023-01-27T00:27:49.620Z,4.60
2023-01-27T00:32:16.897Z,10.80
2023-01-27T00:36:25.721Z,5.77
2023-01-27T00:40:37.304Z,11.10
2023-01-27T00:45:23.850Z,5.70
2023-01-27T00:49:32.775Z,3.10
2023-01-27T00:53:41.998Z,11.03
2023-01-27T00:57:52.817Z,5.03
2023-01-27T01:02:04.861Z,4.70
2023-01-27T01:06:15.637Z,3.73
2023-01-27T01:10:24.618Z,4.70
2023-01-27T01:14:33.474Z,4.40
2023-01-27T01:18:44.261Z,3.73
2023-01-27T01:22:54.400Z,7.70
2023-01-27T01:27:05.272Z,4.93
2023-01-27T01:31:17.350Z,7.07
2023-01-27T01:35:26.616Z,3.33
2023-01-27T01:39:35.257Z,4.23
2023-01-27T01:43:46.991Z,5.83
2023-01-27T01:47:56.691Z,6.10
2023-01-27T01:52:08.403Z,4.90
2023-01-27T01:56:20.056Z,7.57
2023-01-27T02:00:28.740Z,5.73
2023-01-27T02:04:47.773Z,8.80
2023-01-27T02:08:56.854Z,12.03
2023-01-27T02:13:05.587Z,5.87
2023-01-27T02:17:14.965Z,8.33
2023-01-27T02:21:26.010Z,13.90
2023-01-27T02:25:42.745Z,11.90
2023-01-27T02:29:51.367Z,13.43
2023-01-27T02:34:02.985Z,12.20
2023-01-27T02:38:14.387Z,22.93
2023-01-27T02:42:24.318Z,22.10
2023-01-27T02:46:33.196Z,8.60
2023-01-27T02:50:41.739Z,12.77
2023-01-27T02:54:50.386Z,13.57
2023-01-27T02:58:59.139Z,17.33
2023-01-27T03:03:09.401Z,11.17
2023-01-27T03:07:22.811Z,13.60
2023-01-27T03:11:49.599Z,11.40
2023-01-27T03:16:20.650Z,9.97
2023-01-27T03:20:29.942Z,7.30
2023-01-27T03:24:39.700Z,7.63
2023-01-27T03:29:28.378Z,14.73
2023-01-27T03:33:37.255Z,9.70
2023-01-27T03:38:04.378Z,7.93
2023-01-27T03:42:30.993Z,10.33
2023-01-27T03:46:39.631Z,5.33
2023-01-27T03:50:51.051Z,11.43
2023-01-27T03:54:59.717Z,12.83
2023-01-27T03:59:21.020Z,8.33
2023-01-27T04:03:53.224Z,9.57
2023-01-27T04:08:06.563Z,14.43
2023-01-27T04:12:15.415Z,8.90
2023-01-27T04:16:28.215Z,10.23
2023-01-27T04:20:37.952Z,10.33
2023-01-27T04:24:50.554Z,10.50
2023-01-27T04:28:59.751Z,10.17
2023-01-27T04:33:15.307Z,11.23
2023-01-27T04:37:27.989Z,10.37
2023-01-27T04:41:38.305Z,9.87
2023-01-27T04:45:49.004Z,20.00
2023-01-27T04:49:58.256Z,13.43
2023-01-27T04:54:08.088Z,11.83
2023-01-27T04:58:21.109Z,16.67
2023-01-27T05:02:30.873Z,12.27
2023-01-27T05:06:40.803Z,14.00
2023-01-27T05:10:50.796Z,20.87
2023-01-27T05:14:59.435Z,11.43
2023-01-27T05:19:10.760Z,15.83
2023-01-27T05:23:37.110Z,13.77
2023-01-27T05:28:06.794Z,8.17
2023-01-27T05:32:16.449Z,11.57
2023-01-27T05:36:44.430Z,9.10
2023-01-27T05:40:58.402Z,14.97
2023-01-27T05:45:08.378Z,12.40
2023-01-27T05:49:17.319Z,11.30
2023-01-27T05:53:26.527Z,10.83
2023-01-27T05:57:35.661Z,7.90
2023-01-27T06:01:45.978Z,9.33
2023-01-27T06:05:57.383Z,8.43
2023-01-27T06:10:09.943Z,9.93
2023-01-27T06:14:19.568Z,10.50
2023-01-27T06:18:28.430Z,13.17
2023-01-27T06:22:39.869Z,15.33
2023-01-27T06:26:48.704Z,10.57
2023-01-27T06:31:00.839Z,8.27
2023-01-27T06:35:12.940Z,11.27
2023-01-27T06:39:23.304Z,8.60
2023-01-27T06:43:35.178Z,7.57
2023-01-27T06:48:04.065Z,12.90
2023-01-27T06:52:34.303Z,7.60
2023-01-27T06:56:42.917Z,5.93
2023-01-27T07:00:53.768Z,8.03
2023-01-27T07:05:02.344Z,13.50
2023-01-27T07:09:12.195Z,10.57
2023-01-27T07:13:20.928Z,9.17
2023-01-27T07:17:29.544Z,7.47
2023-01-27T07:21:38.176Z,12.60
2023-01-27T07:25:47.116Z,10.70
2023-01-27T07:29:55.950Z,14.00
2023-01-27T07:34:04.571Z,10.20
2023-01-27T07:38:13.375Z,9.63
2023-01-27T07:42:21.958Z,12.15
2023-01-27T07:46:30.662Z,11.77
2023-01-27T07:50:43.088Z,10.37
2023-01-27T07:54:52.031Z,7.33
2023-01-27T07:59:00.746Z,7.97
2023-01-27T08:03:11.136Z,8.80
2023-01-27T08:07:19.769Z,12.47
2023-01-27T08:11:28.523Z,12.00
2023-01-27T08:15:38.282Z,8.30
2023-01-27T08:19:47.171Z,7.90
2023-01-27T08:23:56.686Z,15.27
2023-01-27T08:28:08.877Z,9.77
2023-01-27T08:32:19.486Z,8.83
2023-01-27T08:36:28.133Z,8.80
2023-01-27T08:40:37.221Z,7.47
2023-01-27T08:44:46.093Z,8.53
2023-01-27T08:48:55.127Z,8.53
2023-01-27T08:53:05.639Z,6.67
2023-01-27T08:57:15.460Z,7.47
2023-01-27T09:01:24.451Z,8.33
2023-01-27T09:05:33.124Z,8.20
2023-01-27T09:09:41.876Z,8.93
2023-01-27T09:13:50.483Z,13.80
2023-01-27T09:17:59.403Z,7.27
2023-01-27T09:22:08.311Z,6.83
2023-01-27T09:26:16.985Z,6.60
2023-01-27T09:30:30.709Z,11.80
2023-01-27T09:34:40.476Z,7.10
2023-01-27T09:39:10.006Z,6.43
2023-01-27T09:43:30.244Z,7.17
2023-01-27T09:48:10.995Z,5.40
2023-01-27T09:52:50.233Z,6.43
2023-01-27T09:57:21.118Z,8.13
2023-01-27T10:01:54.943Z,4.90
2023-01-27T10:06:09.626Z,5.30
2023-01-27T10:10:40.414Z,6.90
2023-01-27T10:15:27.634Z,6.83
2023-01-27T10:19:40.265Z,6.10
2023-01-27T10:24:06.884Z,4.27
2023-01-27T10:28:18.610Z,6.27
2023-01-27T10:32:30.247Z,5.70
2023-01-27T10:37:02.742Z,8.03
2023-01-27T10:41:23.021Z,5.83
2023-01-27T10:45:40.276Z,7.90
2023-01-27T10:49:51.899Z,6.73
2023-01-27T10:54:24.240Z,6.33
2023-01-27T10:58:57.100Z,10.00
2023-01-27T11:03:14.671Z,8.53
2023-01-27T11:07:24.978Z,4.90
2023-01-27T11:11:48.768Z,8.00
2023-01-27T11:15:58.071Z,7.73
2023-01-27T11:20:18.063Z,4.80
2023-01-27T11:24:38.260Z,8.33
2023-01-27T11:29:12.692Z,6.20
2023-01-27T11:34:00.419Z,5.10
2023-01-27T11:38:15.944Z,7.00
2023-01-27T11:42:30.482Z,5.60
2023-01-27T11:46:39.587Z,6.70
2023-01-27T11:50:48.469Z,5.03
2023-01-27T11:55:18.267Z,5.40
2023-01-27T11:59:29.938Z,5.50
2023-01-27T12:04:02.507Z,6.60
2023-01-27T12:08:11.119Z,6.60
2023-01-27T12:12:25.442Z,5.17
2023-01-27T12:16:39.655Z,5.63
2023-01-27T12:20:51.558Z,4.90
2023-01-27T12:25:03.237Z,4.30
2023-01-27T12:29:25.561Z,5.37
2023-01-27T12:33:40.037Z,6.97
2023-01-27T12:37:50.456Z,7.70
2023-01-27T12:41:59.367Z,7.00
2023-01-27T12:46:17.738Z,5.20
2023-01-27T12:50:29.500Z,6.23
2023-01-27T12:54:38.149Z,5.50
2023-01-27T12:58:52.316Z,5.20
2023-01-27T13:03:04.000Z,7.43
2023-01-27T13:07:15.961Z,4.47
2023-01-27T13:11:45.391Z,5.10
2023-01-27T13:16:21.365Z,3.30
2023-01-27T13:20:42.625Z,9.53
2023-01-27T13:25:12.290Z,6.23
2023-01-27T13:29:24.147Z,7.10
2023-01-27T13:33:48.045Z,4.10
2023-01-27T13:38:05.616Z,2.50
2023-01-27T13:42:35.541Z,2.83
2023-01-27T13:46:45.148Z,4.07
2023-01-27T13:51:06.073Z,3.40
2023-01-27T13:55:15.568Z,4.20
2023-01-27T13:59:51.188Z,3.00
2023-01-27T14:04:36.137Z,2.90
2023-01-27T14:09:05.604Z,3.53
2023-01-27T14:13:38.394Z,3.60
2023-01-27T14:17:56.424Z,4.43
2023-01-27T14:22:10.889Z,3.40
2023-01-27T14:26:41.696Z,3.63
2023-01-27T14:31:17.307Z,3.30
2023-01-27T14:35:49.531Z,4.77
2023-01-27T14:40:22.280Z,3.90
2023-01-27T14:44:43.615Z,3.60
2023-01-27T14:49:02.371Z,2.60
2023-01-27T14:53:16.781Z,3.17
2023-01-27T14:57:49.536Z,3.67
2023-01-27T15:02:03.734Z,3.33
2023-01-27T15:06:29.309Z,8.70
2023-01-27T15:10:40.909Z,3.37
2023-01-27T15:15:21.317Z,3.10
2023-01-27T15:19:54.282Z,3.27
2023-01-27T15:24:34.757Z,3.33
2023-01-27T15:28:44.466Z,5.20
2023-01-27T15:32:53.142Z,2.87
2023-01-27T15:37:04.866Z,2.60
2023-01-27T15:41:15.448Z,2.83
2023-01-27T15:45:38.512Z,2.93
2023-01-27T15:50:05.140Z,3.63
2023-01-27T15:54:19.499Z,5.53
2023-01-27T15:58:40.741Z,2.87
2023-01-27T16:02:54.575Z,2.63
2023-01-27T16:07:05.576Z,3.80
2023-01-27T16:11:26.278Z,3.77
2023-01-27T16:15:39.320Z,3.50
2023-01-27T16:19:57.146Z,2.67
2023-01-27T16:24:23.755Z,3.27
2023-01-27T16:28:33.397Z,2.87
2023-01-27T16:32:45.354Z,2.67
2023-01-27T16:37:14.885Z,4.70
2023-01-27T16:41:33.998Z,4.43
2023-01-27T16:45:45.700Z,3.53
2023-01-27T16:49:59.321Z,3.40
2023-01-27T16:54:19.802Z,4.80
2023-01-27T16:58:50.003Z,3.60
2023-01-27T17:03:01.750Z,4.17
2023-01-27T17:07:17.876Z,4.30
2023-01-27T17:11:33.791Z,5.30
2023-01-27T17:15:43.307Z,3.10
2023-01-27T17:19:57.796Z,4.00
2023-01-27T17:24:16.702Z,3.67
2023-01-27T17:28:28.528Z,4.20
2023-01-27T17:32:39.929Z,4.10
2023-01-27T17:37:17.228Z,3.20
2023-01-27T17:41:31.379Z,4.73
2023-01-27T17:45:41.818Z,3.90
2023-01-27T17:49:51.827Z,3.40
2023-01-27T17:54:01.307Z,4.23
2023-01-27T17:58:13.390Z,3.80
2023-01-27T18:02:27.929Z,4.20
2023-01-27T18:06:39.136Z,4.97
2023-01-27T18:10:48.167Z,4.13
2023-01-27T18:14:57.103Z,4.10
2023-01-27T18:19:20.790Z,6.40
2023-01-27T18:23:32.439Z,4.57
2023-01-27T18:27:41.828Z,3.50
2023-01-27T18:31:54.699Z,3.93
2023-01-27T18:36:03.490Z,4.37
2023-01-27T18:40:30.350Z,4.63
2023-01-27T18:44:38.875Z,4.83
2023-01-27T18:48:47.520Z,5.87
2023-01-27T18:52:56.438Z,3.83
2023-01-27T18:57:05.064Z,3.87
2023-01-27T19:01:19.839Z,4.67
2023-01-27T19:05:31.411Z,4.03
2023-01-27T19:09:40.064Z,4.03
2023-01-27T19:13:48.723Z,2.90
2023-01-27T19:17:59.266Z,3.30
2023-01-27T19:22:10.968Z,4.23
2023-01-27T19:26:22.583Z,5.67
2023-01-27T19:30:50.589Z,3.40
2023-01-27T19:35:00.820Z,3.83
2023-01-27T19:39:15.530Z,4.50
2023-01-27T19:43:24.222Z,4.17
2023-01-27T19:47:32.765Z,5.60
2023-01-27T19:51:41.377Z,3.60
2023-01-27T19:55:50.399Z,5.43
2023-01-27T19:59:59.042Z,5.00
2023-01-27T20:04:07.638Z,3.50
2023-01-27T20:08:18.872Z,3.30
2023-01-27T20:12:27.484Z,3.63
2023-01-27T20:16:36.040Z,5.50
2023-01-27T20:20:45.397Z,3.23
2023-01-27T20:24:54.087Z,5.57
2023-01-27T20:29:03.866Z,4.20
2023-01-27T20:33:14.435Z,3.87
2023-01-27T20:37:23.054Z,6.40
2023-01-27T20:41:31.544Z,4.80
2023-01-27T20:45:40.837Z,4.70
2023-01-27T20:49:49.461Z,7.90
2023-01-27T20:54:00.791Z,6.80
2023-01-27T20:58:09.473Z,5.40
2023-01-27T21:02:18.425Z,6.30
2023-01-27T21:06:27.038Z,6.77
2023-01-27T21:10:35.772Z,5.80
2023-01-27T21:14:44.503Z,6.25
2023-01-27T21:18:53.129Z,4.73
2023-01-27T21:23:25.198Z,4.67
2023-01-27T21:27:34.563Z,5.63
2023-01-27T21:31:43.786Z,5.60
2023-01-27T21:35:55.979Z,5.00
2023-01-27T21:40:05.276Z,6.20
2023-01-27T21:44:34.348Z,7.63
2023-01-27T21:48:43.092Z,6.87
2023-01-27T21:52:52.317Z,4.30
2023-01-27T21:57:00.859Z,5.53
2023-01-27T22:01:11.430Z,7.20
2023-01-27T22:05:20.075Z,6.07
2023-01-27T22:09:28.593Z,7.47
2023-01-27T22:13:38.455Z,7.43
2023-01-27T22:17:47.281Z,6.50
2023-01-27T22:21:56.732Z,6.87
2023-01-27T22:26:09.182Z,8.40
2023-01-27T22:30:19.646Z,8.20
2023-01-27T22:34:28.246Z,5.07
2023-01-27T22:38:40.365Z,6.57
2023-01-27T22:42:51.952Z,5.23
2023-01-27T22:47:00.686Z,7.27
2023-01-27T22:51:09.418Z,6.53
2023-01-27T22:55:19.729Z,5.60
2023-01-27T22:59:28.415Z,5.03
2023-01-27T23:03:37.044Z,5.40
2023-01-27T23:07:47.371Z,5.90
2023-01-27T23:11:56.503Z,7.00
2023-01-27T23:16:05.593Z,5.43
2023-01-27T23:20:14.301Z,5.87
2023-01-27T23:24:22.880Z,6.20
2023-01-27T23:28:31.404Z,5.60
2023-01-27T23:32:40.313Z,5.93
2023-01-27T23:36:49.115Z,6.13
2023-01-27T23:41:02.587Z,5.07
2023-01-27T23:45:30.680Z,5.00
2023-01-27T23:49:39.315Z,6.53
2023-01-27T23:53:47.934Z,5.50
2023-01-27T23:57:56.431Z,6.13
